Valle Toledo, Valles Caldera, New Mexico Weather observations

Data are for 10 minute period ending at time listed.
 Day   Time   Solar   Ave.   Ave.  Ave.  Vector  Max.   Baro.   Total    
  of    of     Rad.   Air    Rel.  Wind   Wind   Wind  Press.  Precip.   
Year   Day            Temp.  Hum.  Speed  Dir.   Gust                    
2026   (MST)  Kw/m2    F      %     mph   deg.    mph    mb.     in.     
-------------------------------------------------------------------------
 248    0:30   0.00   51.7    79    0.0     0     0.0   736.7    0.00 
 248    0:40   0.00   51.7    79    0.0     0     0.0   736.7    0.00 
 248    0:50   0.00   51.4    79    0.0     0     0.0   736.7    0.00 
 248    1:00   0.00   51.4    78    0.0     0     0.0   736.6    0.00 
 248    1:10   0.00   51.4    78    0.0     0     0.0   736.7    0.00 
 248    1:20   0.00   51.5    78    0.0     0     0.0   736.6    0.00 
 248    1:30   0.00   51.4    78    0.0     0     0.0   736.6    0.00 
 248    1:40   0.00   51.0    78    0.0     0     0.0   736.5    0.00 
 248    1:50   0.00   51.1    79    0.0     0     0.0   736.5    0.00 
 248    2:00   0.00   51.9    77    0.0     0     0.0   736.5    0.00 
 248    2:10   0.00   52.2    76    0.0     0     0.0   736.5    0.00 
 248    2:20   0.00   52.7    75    0.0     0     0.0   736.5    0.00 
 248    2:30   0.00   53.2    75    0.0     0     0.0   736.4    0.00 
 248    2:40   0.00   52.9    76    0.0     0     0.0   736.4    0.00 
 248    2:50   0.00   52.0    78    0.0     0     0.0   736.4    0.00 
 248    3:00   0.00   52.3    78    0.0     0     0.0   736.4    0.00 
 248    3:10   0.00   52.0    78    0.0     0     0.0   736.3    0.00 
 248    3:20   0.00   52.2    76    0.0     0     0.0   736.4    0.00 
 248    3:30   0.00   52.2    76    0.0     0     0.0   736.4    0.00 
 248    3:40   0.00   51.5    75    0.0     0     0.0   736.4    0.00 
 248    3:50   0.00   51.1    75    0.0     0     0.0   736.4    0.00 
 248    4:00   0.00   51.0    75    0.0     0     0.0   736.4    0.00 
 248    4:10   0.00   51.2    75    0.0     0     0.0   736.6    0.00 
 248    4:20   0.00   51.2    74    0.0     0     0.0   736.5    0.00 
 248    4:30   0.00   51.0    73    0.0     0     0.0   736.4    0.00 
 248    4:40   0.00   50.5    75    0.0     0     0.0   736.4    0.00 
 248    4:50   0.00   50.7    75    0.0     0     0.0   736.5    0.00 
 248    5:00   0.00   50.3    77    0.0     0     0.0   736.5    0.00 
 248    5:10   0.00   50.2    77    0.0     0     0.0   736.5    0.00 
 248    5:20   0.00   50.3    75    0.0     0     0.0   736.6    0.00 
 248    5:30   0.00   50.2    76    0.0     0     0.0   736.6    0.00 
 248    5:40   0.00   50.9    74    0.0     0     0.0   736.7    0.00 
 248    5:50   0.01   52.2    70    0.0     0     0.0   736.7    0.00 
 248    6:00   0.01   52.2    70    0.0     0     0.0   736.8    0.00 
 248    6:10   0.02   52.2    70    0.0     0     0.0   737.0    0.00 
 248    6:20   0.02   52.8    69    0.0     0     0.0   737.0    0.00 
 248    6:30   0.02   52.6    69    0.0     0     0.0   737.0    0.00 
 248    6:40   0.02   52.6    69    0.0     0     0.0   737.2    0.00 
 248    6:50   0.14   52.6    71    0.0     0     0.0   737.2    0.00 
 248    7:00   0.21   54.7    68    0.0     0     0.0   737.3    0.00 
 248    7:10   0.24   56.6    63    0.0     0     0.0   737.4    0.00 
 248    7:20   0.26   59.9    58    0.0     0     0.0   737.4    0.00 
 248    7:30   0.20   61.7    55    0.0     0     0.0   737.4    0.00 
 248    7:40   0.35   60.3    60    0.0     0     0.0   737.4    0.00 
 248    7:50   0.39   59.9    65    0.0     0     0.0   737.5    0.00 
 248    8:00   0.42   64.1    50    0.0     0     0.0   737.5    0.00 
 248    8:10   0.46   65.6    46    0.0     0     0.0   737.5    0.00 
 248    8:20   0.49   64.2    48    0.0     0     0.0   737.6    0.00 
 248    8:30   0.52   64.9    49    0.0     0     0.0   737.5    0.00 
 248    8:40   0.56   65.8    46    0.0     0     0.0   737.5    0.00 
 248    8:50   0.59   66.8    46    0.0     0     0.0   737.5    0.00 
 248    9:00   0.62   67.1    47    0.0     0     0.0   737.5    0.00 
 248    9:10   0.66   66.7    47    0.0     0     0.0   737.5    0.00 
 248    9:20   0.69   67.3    46    0.0     0     0.0   737.5    0.00 
 248    9:30   0.72   67.7    44    0.0     0     0.0   737.5    0.00 
 248    9:40   0.75   69.6    41    0.0     0     0.0   737.5    0.00 
 248    9:50   0.78   69.4    40    0.0     0     0.0   737.6    0.00 
 248   10:00   0.76   70.3    39    0.0     0     0.0   737.5    0.00 
 248   10:10   0.85   70.1    38    0.0     0     0.0   737.5    0.00 
 248   10:20   0.87   70.7    36    0.0     0     0.0   737.6    0.00 
 248   10:30   0.89   71.3    35    0.0     0     0.0   737.6    0.00 
 248   10:40   0.91   71.8    34    2.1    71    13.1   737.5    0.00 
 248   10:50   0.93   71.6    35    4.4    99     9.0   737.5    0.00 
 248   11:00   0.95   71.5    34    4.2    85     9.0   737.5    0.00 
 248   11:10   0.77   71.2    34    6.2    96    13.1   737.5    0.00 
 248   11:20   0.99   71.7    34    4.9    44    11.3   737.5    0.00 
 248   11:30   0.91   71.7    34    2.1   358    10.2   737.4    0.00 
 248   11:40   0.33   70.4    36    0.1   324     7.2   737.2    0.00 
 248   11:50   0.33   69.6    36    2.7    83     8.4   737.2    0.00 
 248   12:00   0.39   70.2    35    1.6    71     9.6   737.3    0.00 
 248   12:10   0.35   70.1    35    0.0     0     0.0   737.2    0.00 
 248   12:20   0.29   69.9    35    0.0     0     0.0   737.0    0.00 
 248   12:30   0.69   70.7    36    0.0     0     0.0   736.9    0.00 
 248   12:40   0.36   72.1    32    0.0     0     0.0   736.8    0.00 
 248   12:50   0.24   70.5    34    0.0     0     0.0   736.7    0.00 
 248   13:00   0.24   70.4    34    0.0     0     0.0   736.7    0.00 
 248   13:10   0.23   70.1    35    0.0     0     0.0   736.7    0.00 
 248   13:20   0.21   70.5    34    0.0     0     0.0   736.7    0.00 
 248   13:30   0.20   70.4    34    0.0    14     1.2   736.6    0.00 
 248   13:40   0.25   70.7    32    0.0     0     0.0   736.5    0.00 
 248   13:50   0.57   71.6    32    0.0     0     0.0   736.5    0.00 
 248   14:00   0.95   74.8    28    1.2    52     8.4   736.3    0.00 
 248   14:10   0.71   75.5    28    5.9    74    11.9   736.0    0.00 
 248   14:20   0.54   73.7    29    3.5    74    10.2   735.9    0.00 
 248   14:30   0.83   75.2    29    5.9   122    11.9   735.9    0.00 
 248   14:40   0.35   75.7    28    5.4   164    10.8   735.9    0.00 
 248   14:50   0.33   74.2    29    4.1   130    10.2   735.8    0.00 
 248   15:00   0.41   73.6    30    3.0   125     9.6   735.9    0.00 
 248   15:10   0.73   76.7    27    0.0     0     0.0   735.7    0.00 
 248   15:20   0.76   76.9    26    0.0    27     1.2   735.7    0.00 
 248   15:30   0.68   76.6    26    0.0     0     0.0   735.6    0.00 
 248   15:40   0.38   74.5    30    0.0     0     0.0   735.6    0.00 
 248   15:50   0.52   74.1    34    0.3    79     9.0   735.6    0.00 
 248   16:00   0.16   72.9    34    3.0    72     9.6   735.7    0.00 
 248   16:10   0.24   73.2    29    0.0     0     0.0   735.7    0.00 
 248   16:20   0.21   73.3    29    0.0     0     0.0   735.7    0.00 
 248   16:30   0.24   73.5    28    0.0     0     0.0   735.9    0.00 
 248   16:40   0.21   72.5    28    1.0    88     4.2   735.9    0.00 
 248   16:50   0.36   74.2    27    4.4    88    16.1   735.9    0.00 
 248   17:00   0.26   73.9    27    2.7   124    15.5   735.8    0.00 
 248   17:10   0.27   73.9    27    3.8    80    11.3   735.8    0.00 
 248   17:20   0.24   73.7    28    1.3    53    11.3   735.9    0.00 
 248   17:30   0.18   72.9    28    0.5    64     7.2   736.0    0.00 
 248   17:40   0.14   72.4    28    0.0     0     0.0   736.0    0.00 
 248   17:50   0.07   70.9    29    0.0     0     0.0   736.0    0.00 
 248   18:00   0.07   69.9    30    0.0     0     0.0   736.2    0.00 
 248   18:10   0.03   68.7    31    0.0     0     0.0   736.2    0.00 
 248   18:20   0.01   67.7    32    0.0     0     0.0   736.3    0.00 
 248   18:30   0.01   66.8    33    0.0     0     0.0   736.4    0.00 
 248   18:40   0.00   65.7    36    0.1   209     2.4   736.3    0.00 
 248   18:50   0.00   63.8    40    1.2   209     5.4   736.4    0.00 
 248   19:00   0.00   62.5    43    0.3   216     4.8   736.4    0.00 
 248   19:10   0.00   62.2    43    0.0     0     0.0   736.5    0.00 
 248   19:20   0.00   61.1    46    0.0     0     0.0   736.6    0.00 
 248   19:30   0.00   60.2    48    0.0     0     0.0   736.6    0.00 
 248   19:40   0.00   59.8    49    0.0     0     0.0   736.7    0.00 
 248   19:50   0.00   59.3    49    0.0     0     0.0   736.8    0.00 
 248   20:00   0.00   59.1    49    0.0     0     0.0   736.9    0.00 
 248   20:10   0.00   58.5    50    0.0     0     0.0   737.1    0.00 
 248   20:20   0.00   58.0    51    0.0     0     0.0   737.2    0.00 
 248   20:30   0.00   57.7    51    0.0     0     0.0   737.2    0.00 
 248   20:40   0.00   57.8    51    0.0     0     0.0   737.2    0.00 
 248   20:50   0.00   57.6    52    0.0     0     0.0   737.2    0.00 
 248   21:00   0.00   57.3    52    0.0     0     0.0   737.1    0.00 
 248   21:10   0.00   57.0    53    0.0     0     0.0   737.1    0.00 
 248   21:20   0.00   56.6    53    0.0     0     0.0   737.0    0.00 
 248   21:30   0.00   56.5    54    0.0     0     0.0   737.0    0.00 
 248   21:40   0.00   56.0    54    0.0     0     0.0   736.7    0.00 
 248   21:50   0.00   55.6    55    0.0     0     0.0   736.7    0.00 
 248   22:00   0.00   55.2    56    0.0     0     0.0   736.7    0.00 
 248   22:10   0.00   55.0    55    0.0     0     0.0   736.8    0.00 
 248   22:20   0.00   54.8    56    0.0     0     0.0   736.8    0.00 
 248   22:30   0.00   54.8    55    0.0     0     0.0   736.9    0.00 
 248   22:40   0.00   54.8    54    0.0     0     0.0   737.2    0.00 
 248   22:50   0.00   54.9    54    0.0     0     0.0   737.3    0.00 
 248   23:00   0.00   55.1    54    0.0     0     0.0   737.3    0.00 
 248   23:10   0.00   55.4    55    0.0     0     0.0   737.3    0.00 
 248   23:20   0.00   54.5    57    0.0     0     0.0   737.3    0.00 
 248   23:30   0.00   54.2    56    0.0     0     0.0   737.3    0.00 
 248   23:40   0.00   54.2    55    0.0     0     0.0   737.3    0.00 
 248   23:50   0.00   54.1    56    0.0     0     0.0   737.3    0.00 
 249    0:00   0.00   54.0    56    0.0     0     0.0   737.2    0.00 
 249    0:10   0.00   53.5    57    0.0     0     0.0   737.2    0.00 
 249    0:20   0.00   52.9    58    0.0     0     0.0   737.3    0.00 

Return to Valle Toledo, Valles Caldera graphs page.


Western Regional Climate Center,wrcc@dri.edu